createdAt,value
2023-05-25T00:00:27.624Z,100670.78
2023-05-25T00:05:29.371Z,100672.81
2023-05-25T00:10:31.159Z,100664.50
2023-05-25T00:15:32.883Z,100668.31
2023-05-25T00:20:34.749Z,100671.50
2023-05-25T00:25:36.506Z,100675.19
2023-05-25T00:30:38.454Z,100678.84
2023-05-25T00:35:42.769Z,100669.31
2023-05-25T00:40:45.408Z,100676.25
2023-05-25T00:45:48.093Z,100674.41
2023-05-25T00:50:54.911Z,100669.75
2023-05-25T00:56:11.761Z,100656.63
2023-05-25T01:01:15.757Z,100664.59
2023-05-25T01:06:18.963Z,100666.69
2023-05-25T01:11:27.039Z,100676.53
2023-05-25T01:16:29.850Z,100673.66
2023-05-25T01:22:01.318Z,100673.66
2023-05-25T01:27:32.467Z,100682.84
2023-05-25T01:32:35.377Z,100693.38
2023-05-25T01:37:38.007Z,100693.00
2023-05-25T01:42:39.749Z,100688.72
2023-05-25T01:47:50.491Z,100688.13
2023-05-25T01:53:16.169Z,100687.19
2023-05-25T01:58:19.732Z,100682.06
2023-05-25T02:03:21.779Z,100686.25
2023-05-25T02:08:24.352Z,100684.44
2023-05-25T02:13:26.317Z,100691.66
2023-05-25T02:18:28.427Z,100690.94
2023-05-25T02:23:30.409Z,100697.09
2023-05-25T02:28:32.147Z,100708.28
2023-05-25T02:33:33.868Z,100708.34
2023-05-25T02:38:35.602Z,100711.00
2023-05-25T02:43:37.567Z,100718.75
2023-05-25T02:48:39.662Z,100706.66
2023-05-25T02:53:41.751Z,100711.66
2023-05-25T02:58:43.591Z,100723.97
2023-05-25T03:03:52.233Z,100720.66
2023-05-25T03:08:55.107Z,100717.22
2023-05-25T03:13:56.907Z,100720.75
2023-05-25T03:18:58.790Z,100730.16
2023-05-25T03:24:00.720Z,100738.91
2023-05-25T03:29:02.562Z,100733.56
2023-05-25T03:34:04.492Z,100738.88
2023-05-25T03:39:10.252Z,100740.53
2023-05-25T03:44:12.216Z,100738.84
2023-05-25T03:49:15.348Z,100756.97
2023-05-25T03:54:17.220Z,100762.97
2023-05-25T03:59:19.073Z,100764.69
2023-05-25T04:04:22.274Z,100774.38
2023-05-25T04:09:24.089Z,100763.94
2023-05-25T04:14:25.909Z,100769.97
2023-05-25T04:19:27.936Z,100782.91
2023-05-25T04:24:29.666Z,100784.63
2023-05-25T04:29:32.160Z,100783.50
2023-05-25T04:34:54.546Z,100775.53
2023-05-25T04:40:08.847Z,100778.75
2023-05-25T04:45:10.897Z,100779.25
2023-05-25T04:50:13.168Z,100778.19
2023-05-25T04:55:15.336Z,100782.75
2023-05-25T05:00:20.717Z,100774.06
2023-05-25T05:05:23.541Z,100765.84
2023-05-25T05:10:26.882Z,100762.84
2023-05-25T05:15:32.480Z,100765.34
2023-05-25T05:20:35.486Z,100762.66
2023-05-25T05:25:38.666Z,100762.09
2023-05-25T05:30:41.185Z,100763.31
2023-05-25T05:35:44.571Z,100776.94
2023-05-25T05:40:53.636Z,100779.69
2023-05-25T05:45:57.801Z,100778.84
2023-05-25T05:50:59.932Z,100778.13
2023-05-25T05:56:03.251Z,100780.91
2023-05-25T06:01:09.168Z,100782.25
2023-05-25T06:06:11.434Z,100790.81
2023-05-25T06:11:14.396Z,100777.19
2023-05-25T06:16:16.738Z,100790.13
2023-05-25T06:21:18.837Z,100788.84
2023-05-25T06:26:23.806Z,100773.97
2023-05-25T06:31:26.584Z,100779.66
2023-05-25T06:36:28.586Z,100782.81
2023-05-25T06:41:31.128Z,100782.75
2023-05-25T06:46:33.568Z,100782.94
2023-05-25T06:51:35.586Z,100783.75
2023-05-25T06:56:37.472Z,100786.06
2023-05-25T07:01:39.521Z,100789.50
2023-05-25T07:06:41.606Z,100789.91
2023-05-25T07:11:43.534Z,100785.69
2023-05-25T07:16:46.016Z,100786.44
2023-05-25T07:21:48.088Z,100802.31
2023-05-25T07:26:50.240Z,100789.88
2023-05-25T07:31:52.388Z,100790.03
2023-05-25T07:36:54.434Z,100787.47
2023-05-25T07:41:56.395Z,100777.66
2023-05-25T07:46:58.318Z,100781.59
2023-05-25T07:52:00.055Z,100781.38
2023-05-25T07:57:01.802Z,100783.97
2023-05-25T08:02:04.021Z,100791.38
2023-05-25T08:07:05.836Z,100798.03
2023-05-25T08:12:30.592Z,100796.53
2023-05-25T08:17:29.410Z,100801.25
2023-05-25T08:22:31.377Z,100795.94
2023-05-25T08:27:35.451Z,100797.72
2023-05-25T08:32:37.688Z,100801.13
2023-05-25T08:37:40.076Z,100806.31
2023-05-25T08:42:46.105Z,100803.16
2023-05-25T08:47:49.243Z,100813.09
2023-05-25T08:52:53.307Z,100801.78
2023-05-25T08:58:02.794Z,100803.41
2023-05-25T09:03:09.393Z,100801.28
2023-05-25T09:08:11.525Z,100811.16
2023-05-25T09:13:21.770Z,100814.38
2023-05-25T09:18:24.950Z,100812.25
2023-05-25T09:23:26.658Z,100810.25
2023-05-25T09:28:28.449Z,100811.41
2023-05-25T09:33:30.803Z,100816.00
2023-05-25T09:38:33.074Z,100818.75
2023-05-25T09:43:44.499Z,100833.53
2023-05-25T09:48:50.319Z,100824.34
2023-05-25T09:53:52.220Z,100828.56
2023-05-25T09:58:54.375Z,100832.72
2023-05-25T10:04:04.288Z,100835.88
2023-05-25T10:09:11.377Z,100845.06
2023-05-25T10:14:17.927Z,100829.34
2023-05-25T10:19:32.304Z,100823.06
2023-05-25T10:24:47.964Z,100834.22
2023-05-25T10:29:50.455Z,100824.66
2023-05-25T10:34:53.304Z,100818.69
2023-05-25T10:39:58.091Z,100821.34
2023-05-25T10:45:00.616Z,100817.22
2023-05-25T10:50:03.515Z,100817.09
2023-05-25T10:55:06.004Z,100818.63
2023-05-25T11:00:08.963Z,100812.28
2023-05-25T11:05:41.019Z,100805.97
2023-05-25T11:10:49.251Z,100795.84
2023-05-25T11:16:17.668Z,100798.09
2023-05-25T11:21:30.308Z,100797.19
2023-05-25T11:26:35.751Z,100788.88
2023-05-25T11:31:39.970Z,100787.69
2023-05-25T11:36:45.650Z,100795.28
2023-05-25T11:41:50.290Z,100785.94
2023-05-25T11:46:53.703Z,100784.47
2023-05-25T11:51:57.527Z,100777.22
2023-05-25T11:57:00.373Z,100779.19
2023-05-25T12:02:03.874Z,100777.22
2023-05-25T12:07:08.043Z,100760.38
2023-05-25T12:12:09.945Z,100762.41
2023-05-25T12:17:11.934Z,100765.66
2023-05-25T12:22:14.735Z,100762.72
2023-05-25T12:27:18.850Z,100750.63
2023-05-25T12:32:21.008Z,100748.94
2023-05-25T12:37:23.667Z,100742.19
2023-05-25T12:42:31.329Z,100746.41
2023-05-25T12:47:33.640Z,100736.94
2023-05-25T12:52:44.233Z,100733.97
2023-05-25T12:57:47.555Z,100732.47
2023-05-25T13:02:50.788Z,100731.69
2023-05-25T13:07:55.204Z,100726.34
2023-05-25T13:12:58.695Z,100718.97
2023-05-25T13:18:00.968Z,100731.94
2023-05-25T13:23:03.532Z,100718.75
2023-05-25T13:28:06.738Z,100729.78
2023-05-25T13:33:09.929Z,100715.78
2023-05-25T13:38:13.983Z,100716.25
2023-05-25T13:43:17.256Z,100711.56
2023-05-25T13:48:19.482Z,100701.47
2023-05-25T13:53:21.984Z,100700.34
2023-05-25T13:58:25.406Z,100701.56
2023-05-25T14:03:27.839Z,100692.97
2023-05-25T14:08:31.158Z,100689.91
2023-05-25T14:13:33.610Z,100691.41
2023-05-25T14:18:35.645Z,100686.59
2023-05-25T14:23:37.521Z,100690.88
2023-05-25T14:28:39.624Z,100684.03
2023-05-25T14:33:43.091Z,100680.16
2023-05-25T14:38:45.150Z,100682.47
2023-05-25T14:43:47.115Z,100676.41
2023-05-25T14:48:49.456Z,100680.47
2023-05-25T14:53:53.443Z,100677.22
2023-05-25T14:58:55.555Z,100678.41
2023-05-25T15:03:57.799Z,100681.28
2023-05-25T15:09:00.013Z,100670.53
2023-05-25T15:14:02.076Z,100672.06
2023-05-25T15:19:04.259Z,100676.88
2023-05-25T15:24:06.574Z,100680.34
2023-05-25T15:29:08.587Z,100685.59
2023-05-25T15:34:11.418Z,100676.97
2023-05-25T15:39:16.634Z,100674.84
2023-05-25T15:44:18.774Z,100664.94
2023-05-25T15:49:21.061Z,100660.78
2023-05-25T15:54:23.242Z,100662.28
2023-05-25T15:59:34.737Z,100654.78
2023-05-25T16:04:36.540Z,100649.53
2023-05-25T16:09:38.202Z,100637.91
2023-05-25T16:14:40.680Z,100638.53
2023-05-25T16:19:42.463Z,100642.66
2023-05-25T16:24:44.116Z,100630.06
2023-05-25T16:29:45.817Z,100639.63
2023-05-25T16:34:47.460Z,100632.63
2023-05-25T16:39:49.267Z,100639.44
2023-05-25T16:44:59.323Z,100636.84
2023-05-25T16:50:01.062Z,100632.50
2023-05-25T16:55:02.856Z,100628.66
2023-05-25T17:00:05.563Z,100624.09
2023-05-25T17:05:08.532Z,100621.53
2023-05-25T17:10:10.703Z,100626.91
2023-05-25T17:15:15.972Z,100627.56
2023-05-25T17:20:17.831Z,100623.41
2023-05-25T17:25:19.631Z,100628.63
2023-05-25T17:30:21.660Z,100634.44
2023-05-25T17:35:23.385Z,100630.94
2023-05-25T17:40:25.090Z,100634.88
2023-05-25T17:45:26.795Z,100633.84
2023-05-25T17:50:28.851Z,100634.53
2023-05-25T17:55:30.597Z,100637.47
2023-05-25T18:00:32.342Z,100638.00
2023-05-25T18:05:34.168Z,100641.81
2023-05-25T18:10:35.834Z,100637.13
2023-05-25T18:15:37.501Z,100640.03
2023-05-25T18:20:39.193Z,100648.25
2023-05-25T18:25:41.133Z,100656.41
2023-05-25T18:30:43.008Z,100653.22
2023-05-25T18:35:45.029Z,100654.81
2023-05-25T18:40:46.908Z,100651.28
2023-05-25T18:45:48.560Z,100659.41
2023-05-25T18:50:50.589Z,100659.72
2023-05-25T18:55:52.336Z,100670.22
2023-05-25T19:00:54.080Z,100676.53
2023-05-25T19:05:56.051Z,100682.47
2023-05-25T19:10:57.832Z,100685.16
2023-05-25T19:15:59.657Z,100682.69
2023-05-25T19:21:02.299Z,100692.41
2023-05-25T19:26:04.075Z,100700.09
2023-05-25T19:31:05.871Z,100701.66
2023-05-25T19:36:07.976Z,100718.88
2023-05-25T19:41:09.958Z,100722.72
2023-05-25T19:46:11.743Z,100719.94
2023-05-25T19:51:13.592Z,100719.16
2023-05-25T19:56:15.531Z,100722.75
2023-05-25T20:01:17.294Z,100735.81
2023-05-25T20:06:19.332Z,100733.22
2023-05-25T20:11:21.040Z,100730.78
2023-05-25T20:16:23.456Z,100736.03
2023-05-25T20:21:25.328Z,100750.75
2023-05-25T20:26:27.688Z,100751.53
2023-05-25T20:31:29.559Z,100758.72
2023-05-25T20:36:32.938Z,100759.97
2023-05-25T20:41:34.771Z,100766.69
2023-05-25T20:46:36.589Z,100758.19
2023-05-25T20:51:38.301Z,100765.94
2023-05-25T20:56:40.059Z,100767.06
2023-05-25T21:01:41.834Z,100764.53
2023-05-25T21:06:43.577Z,100784.81
2023-05-25T21:11:45.688Z,100780.34
2023-05-25T21:16:47.457Z,100786.59
2023-05-25T21:21:49.259Z,100793.25
2023-05-25T21:26:51.265Z,100793.88
2023-05-25T21:31:53.067Z,100791.63
2023-05-25T21:36:55.267Z,100794.78
2023-05-25T21:41:56.960Z,100804.53
2023-05-25T21:46:58.814Z,100802.19
2023-05-25T21:52:00.684Z,100795.91
2023-05-25T21:57:03.804Z,100803.63
2023-05-25T22:02:05.707Z,100810.72
2023-05-25T22:07:07.838Z,100812.34
2023-05-25T22:12:12.336Z,100815.69
2023-05-25T22:17:15.330Z,100819.66
2023-05-25T22:22:17.119Z,100824.78
2023-05-25T22:27:18.874Z,100818.88
2023-05-25T22:32:20.722Z,100819.81
2023-05-25T22:37:22.547Z,100822.75
2023-05-25T22:42:24.362Z,100830.94
2023-05-25T22:47:26.130Z,100835.03
2023-05-25T22:52:28.015Z,100835.31
2023-05-25T22:57:30.076Z,100832.75
2023-05-25T23:02:31.950Z,100839.44
2023-05-25T23:07:33.842Z,100837.81
2023-05-25T23:12:35.716Z,100840.31
2023-05-25T23:17:37.478Z,100836.03
2023-05-25T23:22:39.455Z,100830.91
2023-05-25T23:27:41.182Z,100840.75
2023-05-25T23:32:42.904Z,100844.97
2023-05-25T23:37:44.783Z,100832.28
2023-05-25T23:42:46.516Z,100839.69
2023-05-25T23:47:48.225Z,100830.38
2023-05-25T23:52:49.938Z,100831.13
2023-05-25T23:57:51.640Z,100835.53
